sensor_id;sensor_type;location;lat;lon;timestamp;temperature;humidity
18101;DHT22;9177;49.156;8.142;2023-05-16T00:02:22;21.00;99.50
18101;DHT22;9177;49.156;8.142;2023-05-16T00:04:48;21.00;99.50
18101;DHT22;9177;49.156;8.142;2023-05-16T00:07:16;21.00;99.50
18101;DHT22;9177;49.156;8.142;2023-05-16T00:09:43;21.00;99.50
18101;DHT22;9177;49.156;8.142;2023-05-16T00:12:10;21.00;99.50
18101;DHT22;9177;49.156;8.142;2023-05-16T00:14:37;21.00;99.50
18101;DHT22;9177;49.156;8.142;2023-05-16T00:17:08;21.00;99.50
18101;DHT22;9177;49.156;8.142;2023-05-16T00:19:36;21.00;99.50
18101;DHT22;9177;49.156;8.142;2023-05-16T00:22:04;21.00;99.50
18101;DHT22;9177;49.156;8.142;2023-05-16T00:24:32;21.00;99.50
18101;DHT22;9177;49.156;8.142;2023-05-16T00:26:59;21.00;99.50
18101;DHT22;9177;49.156;8.142;2023-05-16T00:29:26;21.00;99.50
18101;DHT22;9177;49.156;8.142;2023-05-16T00:31:53;21.00;99.50
18101;DHT22;9177;49.156;8.142;2023-05-16T00:34:21;21.00;99.50
18101;DHT22;9177;49.156;8.142;2023-05-16T00:36:49;21.00;99.50
18101;DHT22;9177;49.156;8.142;2023-05-16T00:39:16;21.00;99.50
18101;DHT22;9177;49.156;8.142;2023-05-16T00:41:43;21.00;99.50
18101;DHT22;9177;49.156;8.142;2023-05-16T00:44:10;21.00;99.50
18101;DHT22;9177;49.156;8.142;2023-05-16T00:46:36;21.00;99.50
18101;DHT22;9177;49.156;8.142;2023-05-16T00:49:04;21.00;99.50
18101;DHT22;9177;49.156;8.142;2023-05-16T00:51:32;21.00;99.50
18101;DHT22;9177;49.156;8.142;2023-05-16T00:53:59;21.00;99.50
18101;DHT22;9177;49.156;8.142;2023-05-16T00:56:26;21.00;99.50
18101;DHT22;9177;49.156;8.142;2023-05-16T00:58:53;21.00;99.50
18101;DHT22;9177;49.156;8.142;2023-05-16T01:01:22;21.00;99.50
18101;DHT22;9177;49.156;8.142;2023-05-16T01:03:51;21.00;99.50
18101;DHT22;9177;49.156;8.142;2023-05-16T01:06:18;20.90;99.40
18101;DHT22;9177;49.156;8.142;2023-05-16T01:08:46;20.90;99.40
18101;DHT22;9177;49.156;8.142;2023-05-16T01:11:21;20.90;99.50
18101;DHT22;9177;49.156;8.142;2023-05-16T01:13:57;20.90;99.50
18101;DHT22;9177;49.156;8.142;2023-05-16T01:16:31;20.90;99.50
18101;DHT22;9177;49.156;8.142;2023-05-16T01:19:06;20.90;99.40
18101;DHT22;9177;49.156;8.142;2023-05-16T01:21:43;20.90;99.50
18101;DHT22;9177;49.156;8.142;2023-05-16T01:24:22;20.90;99.50
18101;DHT22;9177;49.156;8.142;2023-05-16T01:26:55;20.90;99.50
18101;DHT22;9177;49.156;8.142;2023-05-16T01:29:23;20.90;99.50
18101;DHT22;9177;49.156;8.142;2023-05-16T01:31:50;20.90;99.50
18101;DHT22;9177;49.156;8.142;2023-05-16T01:34:17;20.90;99.50
18101;DHT22;9177;49.156;8.142;2023-05-16T01:36:50;20.90;99.50
18101;DHT22;9177;49.156;8.142;2023-05-16T01:39:21;20.90;99.50
18101;DHT22;9177;49.156;8.142;2023-05-16T01:41:57;20.90;99.50
18101;DHT22;9177;49.156;8.142;2023-05-16T01:44:32;20.90;99.50
18101;DHT22;9177;49.156;8.142;2023-05-16T01:47:03;20.90;99.50
18101;DHT22;9177;49.156;8.142;2023-05-16T01:49:35;20.90;99.50
18101;DHT22;9177;49.156;8.142;2023-05-16T01:52:08;20.90;99.50
18101;DHT22;9177;49.156;8.142;2023-05-16T01:54:38;20.90;99.50
18101;DHT22;9177;49.156;8.142;2023-05-16T01:57:09;20.90;99.50
18101;DHT22;9177;49.156;8.142;2023-05-16T01:59:40;20.90;99.50
18101;DHT22;9177;49.156;8.142;2023-05-16T02:02:08;20.90;99.50
18101;DHT22;9177;49.156;8.142;2023-05-16T02:04:35;20.90;99.50
18101;DHT22;9177;49.156;8.142;2023-05-16T02:07:02;20.90;99.50
18101;DHT22;9177;49.156;8.142;2023-05-16T02:09:29;20.90;99.50
18101;DHT22;9177;49.156;8.142;2023-05-16T02:11:56;20.90;99.50
18101;DHT22;9177;49.156;8.142;2023-05-16T02:14:24;20.90;99.50
18101;DHT22;9177;49.156;8.142;2023-05-16T02:16:51;20.90;99.50
18101;DHT22;9177;49.156;8.142;2023-05-16T02:19:18;20.90;99.50
18101;DHT22;9177;49.156;8.142;2023-05-16T02:21:45;20.90;99.50
18101;DHT22;9177;49.156;8.142;2023-05-16T02:24:11;20.90;99.50
18101;DHT22;9177;49.156;8.142;2023-05-16T02:26:38;20.90;99.50
18101;DHT22;9177;49.156;8.142;2023-05-16T02:29:05;20.90;99.50
18101;DHT22;9177;49.156;8.142;2023-05-16T02:31:33;20.90;99.50
18101;DHT22;9177;49.156;8.142;2023-05-16T02:34:00;20.90;99.50
18101;DHT22;9177;49.156;8.142;2023-05-16T02:36:28;20.90;99.50
18101;DHT22;9177;49.156;8.142;2023-05-16T02:38:55;20.90;99.50
18101;DHT22;9177;49.156;8.142;2023-05-16T02:41:22;20.90;99.50
18101;DHT22;9177;49.156;8.142;2023-05-16T02:43:49;20.80;99.50
18101;DHT22;9177;49.156;8.142;2023-05-16T02:46:23;20.90;99.50
18101;DHT22;9177;49.156;8.142;2023-05-16T02:48:52;20.90;99.50
18101;DHT22;9177;49.156;8.142;2023-05-16T02:51:21;20.90;99.50
18101;DHT22;9177;49.156;8.142;2023-05-16T02:53:49;20.80;99.50
18101;DHT22;9177;49.156;8.142;2023-05-16T02:56:16;20.80;99.50
18101;DHT22;9177;49.156;8.142;2023-05-16T02:58:46;20.90;99.50
18101;DHT22;9177;49.156;8.142;2023-05-16T03:01:14;20.90;99.50
18101;DHT22;9177;49.156;8.142;2023-05-16T03:03:41;20.80;99.50
18101;DHT22;9177;49.156;8.142;2023-05-16T03:06:09;20.90;99.50
18101;DHT22;9177;49.156;8.142;2023-05-16T03:08:37;20.80;99.50
18101;DHT22;9177;49.156;8.142;2023-05-16T03:11:04;20.80;99.50
18101;DHT22;9177;49.156;8.142;2023-05-16T03:13:30;20.80;99.50
18101;DHT22;9177;49.156;8.142;2023-05-16T03:15:57;20.80;99.50
18101;DHT22;9177;49.156;8.142;2023-05-16T03:18:24;20.80;99.50
18101;DHT22;9177;49.156;8.142;2023-05-16T03:20:51;20.80;99.50
18101;DHT22;9177;49.156;8.142;2023-05-16T03:23:20;20.80;99.50
18101;DHT22;9177;49.156;8.142;2023-05-16T03:25:47;20.80;99.50
18101;DHT22;9177;49.156;8.142;2023-05-16T03:28:15;20.80;99.50
18101;DHT22;9177;49.156;8.142;2023-05-16T03:30:42;20.80;99.50
18101;DHT22;9177;49.156;8.142;2023-05-16T03:33:09;20.80;99.50
18101;DHT22;9177;49.156;8.142;2023-05-16T03:35:36;20.80;99.50
18101;DHT22;9177;49.156;8.142;2023-05-16T03:38:03;20.80;99.50
18101;DHT22;9177;49.156;8.142;2023-05-16T03:40:32;20.80;99.50
18101;DHT22;9177;49.156;8.142;2023-05-16T03:42:59;20.80;99.50
18101;DHT22;9177;49.156;8.142;2023-05-16T03:45:26;20.80;99.50
18101;DHT22;9177;49.156;8.142;2023-05-16T03:47:53;20.80;99.50
18101;DHT22;9177;49.156;8.142;2023-05-16T03:50:20;20.80;99.50
18101;DHT22;9177;49.156;8.142;2023-05-16T03:52:47;20.80;99.50
18101;DHT22;9177;49.156;8.142;2023-05-16T03:55:14;20.80;99.50
18101;DHT22;9177;49.156;8.142;2023-05-16T03:57:42;20.80;99.50
18101;DHT22;9177;49.156;8.142;2023-05-16T04:00:10;20.80;99.50
18101;DHT22;9177;49.156;8.142;2023-05-16T04:02:37;20.80;99.40
18101;DHT22;9177;49.156;8.142;2023-05-16T04:05:09;20.80;99.40
18101;DHT22;9177;49.156;8.142;2023-05-16T04:07:36;20.80;99.40
18101;DHT22;9177;49.156;8.142;2023-05-16T04:10:03;20.80;99.40
18101;DHT22;9177;49.156;8.142;2023-05-16T04:12:31;20.90;99.40
18101;DHT22;9177;49.156;8.142;2023-05-16T04:14:59;20.90;99.30
18101;DHT22;9177;49.156;8.142;2023-05-16T04:17:26;20.90;99.30
18101;DHT22;9177;49.156;8.142;2023-05-16T04:19:53;20.90;99.20
18101;DHT22;9177;49.156;8.142;2023-05-16T04:22:20;20.90;99.20
18101;DHT22;9177;49.156;8.142;2023-05-16T04:24:47;21.00;99.20
18101;DHT22;9177;49.156;8.142;2023-05-16T04:27:14;21.00;99.10
18101;DHT22;9177;49.156;8.142;2023-05-16T04:29:41;21.00;99.10
18101;DHT22;9177;49.156;8.142;2023-05-16T04:32:09;21.00;99.10
18101;DHT22;9177;49.156;8.142;2023-05-16T04:34:37;21.00;99.10
18101;DHT22;9177;49.156;8.142;2023-05-16T04:37:04;21.00;99.00
18101;DHT22;9177;49.156;8.142;2023-05-16T04:39:32;21.00;99.00
18101;DHT22;9177;49.156;8.142;2023-05-16T04:41:59;21.00;99.00
18101;DHT22;9177;49.156;8.142;2023-05-16T04:44:26;21.00;99.00
18101;DHT22;9177;49.156;8.142;2023-05-16T04:46:53;21.00;99.00
18101;DHT22;9177;49.156;8.142;2023-05-16T04:49:22;21.00;99.00
18101;DHT22;9177;49.156;8.142;2023-05-16T04:51:48;21.00;99.00
18101;DHT22;9177;49.156;8.142;2023-05-16T04:54:15;21.10;99.00
18101;DHT22;9177;49.156;8.142;2023-05-16T04:56:42;21.00;99.00
18101;DHT22;9177;49.156;8.142;2023-05-16T04:59:09;21.00;99.00
18101;DHT22;9177;49.156;8.142;2023-05-16T05:01:36;21.00;99.00
18101;DHT22;9177;49.156;8.142;2023-05-16T05:04:04;21.00;99.00
18101;DHT22;9177;49.156;8.142;2023-05-16T05:06:32;21.10;99.00
18101;DHT22;9177;49.156;8.142;2023-05-16T05:08:59;21.10;99.00
18101;DHT22;9177;49.156;8.142;2023-05-16T05:11:26;21.00;99.00
18101;DHT22;9177;49.156;8.142;2023-05-16T05:13:53;21.10;99.00
18101;DHT22;9177;49.156;8.142;2023-05-16T05:16:19;21.10;99.00
18101;DHT22;9177;49.156;8.142;2023-05-16T05:18:46;21.10;99.00
18101;DHT22;9177;49.156;8.142;2023-05-16T05:21:13;21.10;99.00
18101;DHT22;9177;49.156;8.142;2023-05-16T05:23:41;21.10;99.00
18101;DHT22;9177;49.156;8.142;2023-05-16T05:26:08;21.10;99.00
18101;DHT22;9177;49.156;8.142;2023-05-16T05:28:35;21.10;99.00
18101;DHT22;9177;49.156;8.142;2023-05-16T05:31:03;21.10;99.00
18101;DHT22;9177;49.156;8.142;2023-05-16T05:33:30;21.10;99.00
18101;DHT22;9177;49.156;8.142;2023-05-16T05:35:57;21.10;99.00
18101;DHT22;9177;49.156;8.142;2023-05-16T05:38:24;21.10;99.00
18101;DHT22;9177;49.156;8.142;2023-05-16T05:40:52;21.10;99.00
18101;DHT22;9177;49.156;8.142;2023-05-16T05:43:19;21.10;99.00
18101;DHT22;9177;49.156;8.142;2023-05-16T05:45:46;21.10;99.00
18101;DHT22;9177;49.156;8.142;2023-05-16T05:48:13;21.10;99.00
18101;DHT22;9177;49.156;8.142;2023-05-16T05:50:40;21.10;99.00
18101;DHT22;9177;49.156;8.142;2023-05-16T05:53:07;21.10;99.00
18101;DHT22;9177;49.156;8.142;2023-05-16T05:55:34;21.10;99.00
18101;DHT22;9177;49.156;8.142;2023-05-16T05:58:02;21.10;99.00
18101;DHT22;9177;49.156;8.142;2023-05-16T06:00:29;21.10;99.00
18101;DHT22;9177;49.156;8.142;2023-05-16T06:02:56;21.10;99.00
18101;DHT22;9177;49.156;8.142;2023-05-16T06:05:23;21.10;99.00
18101;DHT22;9177;49.156;8.142;2023-05-16T06:07:50;21.10;99.00
18101;DHT22;9177;49.156;8.142;2023-05-16T06:10:17;21.10;99.00
18101;DHT22;9177;49.156;8.142;2023-05-16T06:12:43;21.10;99.00
18101;DHT22;9177;49.156;8.142;2023-05-16T06:15:12;21.10;99.00
18101;DHT22;9177;49.156;8.142;2023-05-16T06:17:39;21.10;99.00
18101;DHT22;9177;49.156;8.142;2023-05-16T06:20:07;21.10;99.00
18101;DHT22;9177;49.156;8.142;2023-05-16T06:22:34;21.10;99.00
18101;DHT22;9177;49.156;8.142;2023-05-16T06:25:01;21.10;99.00
18101;DHT22;9177;49.156;8.142;2023-05-16T06:27:28;21.10;99.00
18101;DHT22;9177;49.156;8.142;2023-05-16T06:29:55;21.10;99.00
18101;DHT22;9177;49.156;8.142;2023-05-16T06:32:23;21.10;99.00
18101;DHT22;9177;49.156;8.142;2023-05-16T06:34:50;21.10;99.00
18101;DHT22;9177;49.156;8.142;2023-05-16T06:37:17;21.00;99.70
18101;DHT22;9177;49.156;8.142;2023-05-16T06:39:44;21.00;99.90
18101;DHT22;9177;49.156;8.142;2023-05-16T06:42:10;21.10;99.60
18101;DHT22;9177;49.156;8.142;2023-05-16T06:44:38;21.10;99.40
18101;DHT22;9177;49.156;8.142;2023-05-16T06:47:05;21.10;99.20
18101;DHT22;9177;49.156;8.142;2023-05-16T06:49:33;21.10;99.40
18101;DHT22;9177;49.156;8.142;2023-05-16T06:52:01;21.20;99.80
18101;DHT22;9177;49.156;8.142;2023-05-16T06:54:28;21.20;99.50
18101;DHT22;9177;49.156;8.142;2023-05-16T06:56:55;21.20;99.60
18101;DHT22;9177;49.156;8.142;2023-05-16T06:59:22;21.20;99.90
18101;DHT22;9177;49.156;8.142;2023-05-16T07:01:49;21.20;99.90
18101;DHT22;9177;49.156;8.142;2023-05-16T07:04:16;21.30;99.90
18101;DHT22;9177;49.156;8.142;2023-05-16T07:06:44;21.30;99.90
18101;DHT22;9177;49.156;8.142;2023-05-16T07:09:11;21.30;99.90
18101;DHT22;9177;49.156;8.142;2023-05-16T07:11:38;21.30;99.90
18101;DHT22;9177;49.156;8.142;2023-05-16T07:14:05;21.30;99.90
18101;DHT22;9177;49.156;8.142;2023-05-16T07:16:32;21.40;99.90
18101;DHT22;9177;49.156;8.142;2023-05-16T07:18:59;21.40;99.90
18101;DHT22;9177;49.156;8.142;2023-05-16T07:21:26;21.30;99.90
18101;DHT22;9177;49.156;8.142;2023-05-16T07:23:55;21.30;99.90
18101;DHT22;9177;49.156;8.142;2023-05-16T07:26:22;21.50;99.90
18101;DHT22;9177;49.156;8.142;2023-05-16T07:28:49;21.70;99.90
18101;DHT22;9177;49.156;8.142;2023-05-16T07:31:16;21.70;99.90
18101;DHT22;9177;49.156;8.142;2023-05-16T07:33:43;21.60;99.90
18101;DHT22;9177;49.156;8.142;2023-05-16T07:36:11;21.50;99.90
18101;DHT22;9177;49.156;8.142;2023-05-16T07:38:38;21.50;99.90
18101;DHT22;9177;49.156;8.142;2023-05-16T07:41:07;21.40;99.90
18101;DHT22;9177;49.156;8.142;2023-05-16T07:43:34;21.40;99.90
18101;DHT22;9177;49.156;8.142;2023-05-16T07:46:01;21.40;99.90
18101;DHT22;9177;49.156;8.142;2023-05-16T07:48:28;21.40;99.90
18101;DHT22;9177;49.156;8.142;2023-05-16T07:50:55;21.40;99.90
18101;DHT22;9177;49.156;8.142;2023-05-16T07:53:22;21.40;99.90
18101;DHT22;9177;49.156;8.142;2023-05-16T07:55:49;21.40;99.90
18101;DHT22;9177;49.156;8.142;2023-05-16T07:58:18;21.40;99.90
18101;DHT22;9177;49.156;8.142;2023-05-16T08:00:45;21.40;99.90
18101;DHT22;9177;49.156;8.142;2023-05-16T08:03:12;21.40;99.90
18101;DHT22;9177;49.156;8.142;2023-05-16T08:05:39;21.30;99.90
18101;DHT22;9177;49.156;8.142;2023-05-16T08:08:05;21.30;99.90
18101;DHT22;9177;49.156;8.142;2023-05-16T08:10:32;21.30;99.90
18101;DHT22;9177;49.156;8.142;2023-05-16T08:12:59;21.30;99.90
18101;DHT22;9177;49.156;8.142;2023-05-16T08:15:29;21.30;99.90
18101;DHT22;9177;49.156;8.142;2023-05-16T08:17:57;21.20;99.90
18101;DHT22;9177;49.156;8.142;2023-05-16T08:20:24;21.20;99.90
18101;DHT22;9177;49.156;8.142;2023-05-16T08:22:51;21.20;99.90
18101;DHT22;9177;49.156;8.142;2023-05-16T08:25:18;21.20;99.90
18101;DHT22;9177;49.156;8.142;2023-05-16T08:27:47;21.20;99.60
18101;DHT22;9177;49.156;8.142;2023-05-16T08:30:14;21.20;99.40
18101;DHT22;9177;49.156;8.142;2023-05-16T08:32:42;21.20;99.30
18101;DHT22;9177;49.156;8.142;2023-05-16T08:35:10;21.20;99.20
18101;DHT22;9177;49.156;8.142;2023-05-16T08:37:37;21.30;98.90
18101;DHT22;9177;49.156;8.142;2023-05-16T08:42:33;21.20;98.60
18101;DHT22;9177;49.156;8.142;2023-05-16T08:45:00;21.20;98.40
18101;DHT22;9177;49.156;8.142;2023-05-16T08:47:30;21.20;98.20
18101;DHT22;9177;49.156;8.142;2023-05-16T08:49:59;21.20;98.10
18101;DHT22;9177;49.156;8.142;2023-05-16T08:52:30;21.20;98.00
18101;DHT22;9177;49.156;8.142;2023-05-16T08:55:00;21.20;97.80
18101;DHT22;9177;49.156;8.142;2023-05-16T08:57:30;21.20;97.70
18101;DHT22;9177;49.156;8.142;2023-05-16T08:59:58;21.20;97.70
18101;DHT22;9177;49.156;8.142;2023-05-16T09:02:26;21.20;97.60
18101;DHT22;9177;49.156;8.142;2023-05-16T09:04:53;21.20;97.40
18101;DHT22;9177;49.156;8.142;2023-05-16T09:07:24;21.20;97.40
18101;DHT22;9177;49.156;8.142;2023-05-16T09:09:51;21.10;97.30
18101;DHT22;9177;49.156;8.142;2023-05-16T09:12:19;21.10;97.30
18101;DHT22;9177;49.156;8.142;2023-05-16T09:14:46;21.10;97.10
18101;DHT22;9177;49.156;8.142;2023-05-16T09:17:13;21.10;97.00
18101;DHT22;9177;49.156;8.142;2023-05-16T09:19:41;21.10;97.00
18101;DHT22;9177;49.156;8.142;2023-05-16T09:22:08;21.10;96.90
18101;DHT22;9177;49.156;8.142;2023-05-16T09:24:39;21.10;96.80
18101;DHT22;9177;49.156;8.142;2023-05-16T09:27:09;21.10;96.70
18101;DHT22;9177;49.156;8.142;2023-05-16T09:29:38;21.10;96.60
18101;DHT22;9177;49.156;8.142;2023-05-16T09:32:09;21.10;96.50
18101;DHT22;9177;49.156;8.142;2023-05-16T09:34:38;21.20;96.50
18101;DHT22;9177;49.156;8.142;2023-05-16T09:37:05;21.20;96.50
18101;DHT22;9177;49.156;8.142;2023-05-16T09:39:33;21.20;96.50
18101;DHT22;9177;49.156;8.142;2023-05-16T09:42:01;21.20;96.50
18101;DHT22;9177;49.156;8.142;2023-05-16T09:44:28;21.20;96.60
18101;DHT22;9177;49.156;8.142;2023-05-16T09:46:54;21.30;96.70
18101;DHT22;9177;49.156;8.142;2023-05-16T09:49:21;21.30;96.70
18101;DHT22;9177;49.156;8.142;2023-05-16T09:51:49;21.30;96.80
18101;DHT22;9177;49.156;8.142;2023-05-16T09:54:28;21.30;96.80
18101;DHT22;9177;49.156;8.142;2023-05-16T09:56:56;21.30;96.80
18101;DHT22;9177;49.156;8.142;2023-05-16T09:59:24;21.30;96.80
18101;DHT22;9177;49.156;8.142;2023-05-16T10:01:52;21.30;96.90
18101;DHT22;9177;49.156;8.142;2023-05-16T10:04:19;21.30;96.90
18101;DHT22;9177;49.156;8.142;2023-05-16T10:06:48;21.30;96.90
18101;DHT22;9177;49.156;8.142;2023-05-16T10:09:17;21.30;97.00
18101;DHT22;9177;49.156;8.142;2023-05-16T10:11:47;21.30;97.00
18101;DHT22;9177;49.156;8.142;2023-05-16T10:14:16;21.20;97.00
18101;DHT22;9177;49.156;8.142;2023-05-16T10:16:46;21.30;97.10
18101;DHT22;9177;49.156;8.142;2023-05-16T10:19:15;21.20;97.10
18101;DHT22;9177;49.156;8.142;2023-05-16T10:21:47;21.20;97.10
18101;DHT22;9177;49.156;8.142;2023-05-16T10:24:20;21.20;97.10
18101;DHT22;9177;49.156;8.142;2023-05-16T10:26:48;21.20;97.20
18101;DHT22;9177;49.156;8.142;2023-05-16T10:29:17;21.20;97.20
18101;DHT22;9177;49.156;8.142;2023-05-16T10:31:47;21.20;97.20
18101;DHT22;9177;49.156;8.142;2023-05-16T10:34:15;21.20;97.30
18101;DHT22;9177;49.156;8.142;2023-05-16T10:36:42;21.20;97.30
18101;DHT22;9177;49.156;8.142;2023-05-16T10:39:10;21.20;97.30
18101;DHT22;9177;49.156;8.142;2023-05-16T10:41:37;21.20;97.30
18101;DHT22;9177;49.156;8.142;2023-05-16T10:44:12;21.20;97.80
18101;DHT22;9177;49.156;8.142;2023-05-16T10:46:40;21.20;97.40
18101;DHT22;9177;49.156;8.142;2023-05-16T10:49:22;21.20;97.40
18101;DHT22;9177;49.156;8.142;2023-05-16T10:52:03;21.20;97.40
18101;DHT22;9177;49.156;8.142;2023-05-16T10:54:38;21.20;97.40
18101;DHT22;9177;49.156;8.142;2023-05-16T10:57:08;21.20;97.40
18101;DHT22;9177;49.156;8.142;2023-05-16T10:59:41;21.20;97.50
18101;DHT22;9177;49.156;8.142;2023-05-16T11:02:22;21.20;97.50
18101;DHT22;9177;49.156;8.142;2023-05-16T11:04:51;21.20;97.50
18101;DHT22;9177;49.156;8.142;2023-05-16T11:07:20;21.20;97.50
18101;DHT22;9177;49.156;8.142;2023-05-16T11:10:01;21.20;97.60
18101;DHT22;9177;49.156;8.142;2023-05-16T11:12:47;21.20;97.60
18101;DHT22;9177;49.156;8.142;2023-05-16T11:15:23;21.20;97.60
18101;DHT22;9177;49.156;8.142;2023-05-16T11:17:50;21.20;97.60
18101;DHT22;9177;49.156;8.142;2023-05-16T11:20:26;21.20;98.00
18101;DHT22;9177;49.156;8.142;2023-05-16T11:23:20;21.20;97.80
18101;DHT22;9177;49.156;8.142;2023-05-16T11:25:51;21.20;98.10
18101;DHT22;9177;49.156;8.142;2023-05-16T11:28:19;21.20;98.00
18101;DHT22;9177;49.156;8.142;2023-05-16T11:30:48;21.30;98.30
18101;DHT22;9177;49.156;8.142;2023-05-16T11:33:17;21.30;98.50
18101;DHT22;9177;49.156;8.142;2023-05-16T11:35:59;21.30;98.40
18101;DHT22;9177;49.156;8.142;2023-05-16T11:38:29;21.40;98.30
18101;DHT22;9177;49.156;8.142;2023-05-16T11:41:01;21.40;98.30
18101;DHT22;9177;49.156;8.142;2023-05-16T11:43:28;21.40;98.40
18101;DHT22;9177;49.156;8.142;2023-05-16T11:45:55;21.40;98.50
18101;DHT22;9177;49.156;8.142;2023-05-16T11:48:23;21.40;98.70
18101;DHT22;9177;49.156;8.142;2023-05-16T11:50:52;21.50;98.60
18101;DHT22;9177;49.156;8.142;2023-05-16T11:53:20;21.50;98.60
18101;DHT22;9177;49.156;8.142;2023-05-16T11:55:48;21.50;98.60
18101;DHT22;9177;49.156;8.142;2023-05-16T11:58:19;21.40;98.60
18101;DHT22;9177;49.156;8.142;2023-05-16T12:00:50;21.40;98.70
18101;DHT22;9177;49.156;8.142;2023-05-16T12:03:18;21.50;98.80
18101;DHT22;9177;49.156;8.142;2023-05-16T12:05:53;21.50;98.70
18101;DHT22;9177;49.156;8.142;2023-05-16T12:08:22;21.50;98.80
18101;DHT22;9177;49.156;8.142;2023-05-16T12:10:50;21.50;99.00
18101;DHT22;9177;49.156;8.142;2023-05-16T12:13:18;21.50;98.80
18101;DHT22;9177;49.156;8.142;2023-05-16T12:15:45;21.60;98.90
18101;DHT22;9177;49.156;8.142;2023-05-16T12:18:13;21.50;99.40
18101;DHT22;9177;49.156;8.142;2023-05-16T12:20:40;21.50;99.20
18101;DHT22;9177;49.156;8.142;2023-05-16T12:23:11;21.60;99.30
18101;DHT22;9177;49.156;8.142;2023-05-16T12:25:46;21.60;99.40
18101;DHT22;9177;49.156;8.142;2023-05-16T12:28:14;21.60;99.40
18101;DHT22;9177;49.156;8.142;2023-05-16T12:30:43;21.60;99.50
18101;DHT22;9177;49.156;8.142;2023-05-16T12:33:12;21.60;99.50
18101;DHT22;9177;49.156;8.142;2023-05-16T12:35:40;21.60;99.50
18101;DHT22;9177;49.156;8.142;2023-05-16T12:38:09;21.60;99.70
18101;DHT22;9177;49.156;8.142;2023-05-16T12:40:38;21.60;99.80
18101;DHT22;9177;49.156;8.142;2023-05-16T12:43:12;21.60;99.80
18101;DHT22;9177;49.156;8.142;2023-05-16T12:45:39;21.60;99.90
18101;DHT22;9177;49.156;8.142;2023-05-16T12:48:11;21.60;99.70
18101;DHT22;9177;49.156;8.142;2023-05-16T12:50:39;21.60;99.80
18101;DHT22;9177;49.156;8.142;2023-05-16T12:53:12;21.50;99.90
18101;DHT22;9177;49.156;8.142;2023-05-16T12:55:40;21.50;99.90
18101;DHT22;9177;49.156;8.142;2023-05-16T12:58:08;21.40;99.90
18101;DHT22;9177;49.156;8.142;2023-05-16T13:00:36;21.40;99.90
18101;DHT22;9177;49.156;8.142;2023-05-16T13:03:04;21.30;99.90
18101;DHT22;9177;49.156;8.142;2023-05-16T13:05:31;21.30;99.90
18101;DHT22;9177;49.156;8.142;2023-05-16T13:08:00;21.30;99.90
18101;DHT22;9177;49.156;8.142;2023-05-16T13:10:27;21.30;99.90
18101;DHT22;9177;49.156;8.142;2023-05-16T13:12:55;21.30;99.90
18101;DHT22;9177;49.156;8.142;2023-05-16T13:15:24;21.30;99.90
18101;DHT22;9177;49.156;8.142;2023-05-16T13:17:51;21.30;99.80
18101;DHT22;9177;49.156;8.142;2023-05-16T13:20:18;21.30;99.80
18101;DHT22;9177;49.156;8.142;2023-05-16T13:22:45;21.20;99.80
18101;DHT22;9177;49.156;8.142;2023-05-16T13:25:12;21.30;99.80
18101;DHT22;9177;49.156;8.142;2023-05-16T13:27:39;21.20;99.80
18101;DHT22;9177;49.156;8.142;2023-05-16T13:30:08;21.20;99.80
18101;DHT22;9177;49.156;8.142;2023-05-16T13:32:36;21.20;99.70
18101;DHT22;9177;49.156;8.142;2023-05-16T13:35:03;21.30;99.70
18101;DHT22;9177;49.156;8.142;2023-05-16T13:37:30;21.30;99.70
18101;DHT22;9177;49.156;8.142;2023-05-16T13:39:57;21.30;99.60
18101;DHT22;9177;49.156;8.142;2023-05-16T13:42:24;21.30;99.60
18101;DHT22;9177;49.156;8.142;2023-05-16T13:44:51;21.30;99.60
18101;DHT22;9177;49.156;8.142;2023-05-16T13:47:19;21.20;99.60
18101;DHT22;9177;49.156;8.142;2023-05-16T13:49:46;21.30;99.60
18101;DHT22;9177;49.156;8.142;2023-05-16T13:52:13;21.30;99.60
18101;DHT22;9177;49.156;8.142;2023-05-16T13:54:40;21.30;99.60
18101;DHT22;9177;49.156;8.142;2023-05-16T13:57:07;21.30;99.60
18101;DHT22;9177;49.156;8.142;2023-05-16T13:59:34;21.30;99.60
18101;DHT22;9177;49.156;8.142;2023-05-16T14:02:01;21.30;99.60
18101;DHT22;9177;49.156;8.142;2023-05-16T14:04:30;21.30;99.50
18101;DHT22;9177;49.156;8.142;2023-05-16T14:06:56;21.30;99.50
18101;DHT22;9177;49.156;8.142;2023-05-16T14:09:23;21.30;99.50
18101;DHT22;9177;49.156;8.142;2023-05-16T14:11:50;21.30;99.40
18101;DHT22;9177;49.156;8.142;2023-05-16T14:14:17;21.30;99.40
18101;DHT22;9177;49.156;8.142;2023-05-16T14:16:44;21.30;99.40
18101;DHT22;9177;49.156;8.142;2023-05-16T14:19:11;21.30;99.40
18101;DHT22;9177;49.156;8.142;2023-05-16T14:21:40;21.30;99.40
18101;DHT22;9177;49.156;8.142;2023-05-16T14:24:07;21.40;99.40
18101;DHT22;9177;49.156;8.142;2023-05-16T14:26:34;21.50;99.30
18101;DHT22;9177;49.156;8.142;2023-05-16T14:29:01;21.50;99.20
18101;DHT22;9177;49.156;8.142;2023-05-16T14:31:28;21.60;99.00
18101;DHT22;9177;49.156;8.142;2023-05-16T14:33:55;21.70;98.90
18101;DHT22;9177;49.156;8.142;2023-05-16T14:36:21;21.80;98.80
18101;DHT22;9177;49.156;8.142;2023-05-16T14:38:50;21.90;98.70
18101;DHT22;9177;49.156;8.142;2023-05-16T14:41:17;21.90;98.60
18101;DHT22;9177;49.156;8.142;2023-05-16T14:43:44;21.90;98.50
18101;DHT22;9177;49.156;8.142;2023-05-16T14:46:11;22.00;98.40
18101;DHT22;9177;49.156;8.142;2023-05-16T14:48:38;22.00;98.40
18101;DHT22;9177;49.156;8.142;2023-05-16T14:51:05;22.00;98.40
18101;DHT22;9177;49.156;8.142;2023-05-16T14:53:32;21.90;98.40
18101;DHT22;9177;49.156;8.142;2023-05-16T14:56:00;21.90;98.40
18101;DHT22;9177;49.156;8.142;2023-05-16T14:58:28;21.80;98.50
18101;DHT22;9177;49.156;8.142;2023-05-16T15:00:55;21.80;98.60
18101;DHT22;9177;49.156;8.142;2023-05-16T15:03:22;21.80;98.60
18101;DHT22;9177;49.156;8.142;2023-05-16T15:05:49;21.70;98.60
18101;DHT22;9177;49.156;8.142;2023-05-16T15:08:17;21.70;98.50
18101;DHT22;9177;49.156;8.142;2023-05-16T15:10:44;21.80;98.60
18101;DHT22;9177;49.156;8.142;2023-05-16T15:13:12;21.90;98.60
18101;DHT22;9177;49.156;8.142;2023-05-16T15:15:39;21.80;98.40
18101;DHT22;9177;49.156;8.142;2023-05-16T15:18:06;21.80;98.40
18101;DHT22;9177;49.156;8.142;2023-05-16T15:20:35;21.80;98.40
18101;DHT22;9177;49.156;8.142;2023-05-16T15:23:02;21.80;98.40
18101;DHT22;9177;49.156;8.142;2023-05-16T15:25:29;21.80;98.40
18101;DHT22;9177;49.156;8.142;2023-05-16T15:27:56;21.90;98.30
18101;DHT22;9177;49.156;8.142;2023-05-16T15:30:24;21.90;98.30
18101;DHT22;9177;49.156;8.142;2023-05-16T15:32:51;21.90;98.20
18101;DHT22;9177;49.156;8.142;2023-05-16T15:35:18;22.00;98.20
18101;DHT22;9177;49.156;8.142;2023-05-16T15:37:45;22.00;98.10
18101;DHT22;9177;49.156;8.142;2023-05-16T15:40:12;22.00;98.00
18101;DHT22;9177;49.156;8.142;2023-05-16T15:42:39;22.00;98.00
18101;DHT22;9177;49.156;8.142;2023-05-16T15:45:09;22.00;98.00
18101;DHT22;9177;49.156;8.142;2023-05-16T15:47:38;22.00;98.00
18101;DHT22;9177;49.156;8.142;2023-05-16T15:50:05;22.00;98.40
18101;DHT22;9177;49.156;8.142;2023-05-16T15:52:32;22.00;98.00
18101;DHT22;9177;49.156;8.142;2023-05-16T15:55:00;22.00;98.00